sensor_id;sensor_type;location;lat;lon;timestamp;pressure;altitude;pressure_sealevel;temperature;humidity
54122;BME280;40029;58.708;50.190;2023-04-10T00:00:14;100719.69;;;6.72;14.62
54122;BME280;40029;58.708;50.190;2023-04-10T00:02:45;100709.41;;;6.63;14.25
54122;BME280;40029;58.708;50.190;2023-04-10T00:05:17;100632.88;;;6.18;14.46
54122;BME280;40029;58.708;50.190;2023-04-10T00:07:48;100708.56;;;6.57;14.65
54122;BME280;40029;58.708;50.190;2023-04-10T00:10:19;100718.88;;;6.64;14.55
54122;BME280;40029;58.708;50.190;2023-04-10T00:13:10;100724.06;;;6.63;15.02
54122;BME280;40029;58.708;50.190;2023-04-10T00:15:42;100724.94;;;6.57;15.21
54122;BME280;40029;58.708;50.190;2023-04-10T00:18:31;100724.09;;;6.54;14.97
54122;BME280;40029;58.708;50.190;2023-04-10T00:21:03;100683.72;;;6.30;15.09
54122;BME280;40029;58.708;50.190;2023-04-10T00:23:53;100705.25;;;6.35;15.26
54122;BME280;40029;58.708;50.190;2023-04-10T00:26:24;100704.41;;;6.28;15.39
54122;BME280;40029;58.708;50.190;2023-04-10T00:28:56;100720.78;;;6.35;15.74
54122;BME280;40029;58.708;50.190;2023-04-10T00:31:28;100711.34;;;6.23;15.85
54122;BME280;40029;58.708;50.190;2023-04-10T00:33:59;100667.53;;;5.92;15.89
54122;BME280;40029;58.708;50.190;2023-04-10T00:36:30;100720.88;;;6.18;15.95
54122;BME280;40029;58.708;50.190;2023-04-10T00:39:02;100715.72;;;6.10;16.28
54122;BME280;40029;58.708;50.190;2023-04-10T00:41:33;100683.03;;;5.86;16.65
54122;BME280;40029;58.708;50.190;2023-04-10T00:44:05;100649.53;;;5.56;16.87
54122;BME280;40029;58.708;50.190;2023-04-10T00:46:38;100715.78;;;5.93;17.04
54122;BME280;40029;58.708;50.190;2023-04-10T00:49:10;100650.41;;;5.50;16.85
54122;BME280;40029;58.708;50.190;2023-04-10T00:51:41;100673.63;;;5.56;17.24
54122;BME280;40029;58.708;50.190;2023-04-10T00:54:13;100679.69;;;5.55;17.84
54122;BME280;40029;58.708;50.190;2023-04-10T00:56:45;100729.63;;;5.74;17.50
54122;BME280;40029;58.708;50.190;2023-04-10T00:59:17;100685.75;;;5.43;17.53
54122;BME280;40029;58.708;50.190;2023-04-10T01:01:48;100744.28;;;5.70;18.20
54122;BME280;40029;58.708;50.190;2023-04-10T01:04:21;100734.78;;;5.65;18.07
54122;BME280;40029;58.708;50.190;2023-04-10T01:13:07;100705.56;;;5.38;18.70
54122;BME280;40029;58.708;50.190;2023-04-10T01:16:04;100758.94;;;5.67;18.94
54122;BME280;40029;58.708;50.190;2023-04-10T01:18:51;100752.91;;;5.60;19.19
54122;BME280;40029;58.708;50.190;2023-04-10T01:21:25;100749.50;;;5.43;18.98
54122;BME280;40029;58.708;50.190;2023-04-10T01:27:25;100763.25;;;5.63;19.87
54122;BME280;40029;58.708;50.190;2023-04-10T01:30:02;100752.06;;;5.55;19.92
54122;BME280;40029;58.708;50.190;2023-04-10T01:32:35;100743.47;;;5.50;20.05
54122;BME280;40029;58.708;50.190;2023-04-10T01:35:08;100765.84;;;5.74;19.83
54122;BME280;40029;58.708;50.190;2023-04-10T01:37:41;100764.94;;;5.76;20.14
54122;BME280;40029;58.708;50.190;2023-04-10T01:40:16;100714.16;;;5.51;19.77
54122;BME280;40029;58.708;50.190;2023-04-10T01:42:50;100768.38;;;5.86;20.26
54122;BME280;40029;58.708;50.190;2023-04-10T01:45:26;100769.22;;;5.85;20.18
54122;BME280;40029;58.708;50.190;2023-04-10T01:47:58;100770.13;;;5.83;20.10
54122;BME280;40029;58.708;50.190;2023-04-10T01:50:30;100777.00;;;5.84;20.61
54122;BME280;40029;58.708;50.190;2023-04-10T01:53:04;100719.34;;;5.57;20.57
54122;BME280;40029;58.708;50.190;2023-04-10T01:55:36;100723.66;;;5.49;20.50
54122;BME280;40029;58.708;50.190;2023-04-10T01:58:10;100757.19;;;5.69;20.98
54122;BME280;40029;58.708;50.190;2023-04-10T02:00:42;100725.38;;;5.47;21.33
54122;BME280;40029;58.708;50.190;2023-04-10T02:03:15;100746.91;;;5.57;20.83
54122;BME280;40029;58.708;50.190;2023-04-10T02:08:39;100794.22;;;5.82;21.39
54122;BME280;40029;58.708;50.190;2023-04-10T02:11:18;100789.94;;;5.82;21.13
54122;BME280;40029;58.708;50.190;2023-04-10T02:13:58;100791.66;;;5.82;20.95
54122;BME280;40029;58.708;50.190;2023-04-10T02:16:52;100789.94;;;5.82;21.13
54122;BME280;40029;58.708;50.190;2023-04-10T02:19:26;100795.97;;;5.83;21.25
54122;BME280;40029;58.708;50.190;2023-04-10T02:21:58;100797.69;;;5.77;21.01
54122;BME280;40029;58.708;50.190;2023-04-10T02:24:31;100760.69;;;5.53;21.72
54122;BME280;40029;58.708;50.190;2023-04-10T02:27:03;100751.22;;;5.48;21.72
54122;BME280;40029;58.708;50.190;2023-04-10T02:29:34;100746.06;;;5.44;22.06
54122;BME280;40029;58.708;50.190;2023-04-10T02:32:06;100808.03;;;5.77;21.92
54122;BME280;40029;58.708;50.190;2023-04-10T02:34:37;100805.47;;;5.70;22.34
54122;BME280;40029;58.708;50.190;2023-04-10T02:37:09;100813.22;;;5.71;22.16
54122;BME280;40029;58.708;50.190;2023-04-10T02:39:40;100792.56;;;5.51;23.48
54122;BME280;40029;58.708;50.190;2023-04-10T02:42:12;100785.69;;;5.46;22.99
54122;BME280;40029;58.708;50.190;2023-04-10T02:44:44;100792.56;;;5.50;23.09
54122;BME280;40029;58.708;50.190;2023-04-10T02:47:16;100757.25;;;5.37;23.08
54122;BME280;40029;58.708;50.190;2023-04-10T02:49:50;100811.50;;;5.67;23.57
54122;BME280;40029;58.708;50.190;2023-04-10T02:52:21;100816.69;;;5.58;23.91
54122;BME280;40029;58.708;50.190;2023-04-10T02:54:52;100814.94;;;5.65;23.86
54122;BME280;40029;58.708;50.190;2023-04-10T02:57:24;100816.69;;;5.58;24.13
54122;BME280;40029;58.708;50.190;2023-04-10T02:59:55;100828.75;;;5.62;24.39
54122;BME280;40029;58.708;50.190;2023-04-10T03:02:30;100814.94;;;5.60;24.23
54122;BME280;40029;58.708;50.190;2023-04-10T03:05:08;100769.31;;;5.33;24.83
54122;BME280;40029;58.708;50.190;2023-04-10T03:07:58;100794.28;;;5.46;25.03
54122;BME280;40029;58.708;50.190;2023-04-10T03:10:29;100824.44;;;5.67;24.95
54122;BME280;40029;58.708;50.190;2023-04-10T03:13:00;100825.28;;;5.68;24.64
54122;BME280;40029;58.708;50.190;2023-04-10T03:15:31;100777.09;;;5.32;25.31
54122;BME280;40029;58.708;50.190;2023-04-10T03:18:04;100831.34;;;5.70;25.34
54122;BME280;40029;58.708;50.190;2023-04-10T03:20:35;100818.41;;;5.62;25.75
54122;BME280;40029;58.708;50.190;2023-04-10T03:23:09;100839.94;;;5.69;25.51
54122;BME280;40029;58.708;50.190;2023-04-10T03:25:40;100802.91;;;5.50;25.58
54122;BME280;40029;58.708;50.190;2023-04-10T03:28:12;100797.75;;;5.53;25.99
54122;BME280;40029;58.708;50.190;2023-04-10T03:30:44;100822.72;;;5.49;26.24
54122;BME280;40029;58.708;50.190;2023-04-10T03:33:15;100833.91;;;5.73;25.76
54122;BME280;40029;58.708;50.190;2023-04-10T03:35:46;100832.19;;;5.80;25.71
54122;BME280;40029;58.708;50.190;2023-04-10T03:38:35;100826.13;;;5.81;25.76
54122;BME280;40029;58.708;50.190;2023-04-10T03:41:07;100795.19;;;5.44;26.16
54122;BME280;40029;58.708;50.190;2023-04-10T03:43:39;100802.91;;;5.53;26.04
54122;BME280;40029;58.708;50.190;2023-04-10T03:46:11;100852.88;;;5.87;26.25
54122;BME280;40029;58.708;50.190;2023-04-10T03:48:46;100852.00;;;5.85;25.95
54122;BME280;40029;58.708;50.190;2023-04-10T03:51:20;100807.22;;;5.49;26.23
54122;BME280;40029;58.708;50.190;2023-04-10T03:53:54;100861.50;;;5.79;26.07
54122;BME280;40029;58.708;50.190;2023-04-10T03:56:25;100849.44;;;5.74;25.38
54122;BME280;40029;58.708;50.190;2023-04-10T03:58:56;100863.19;;;5.86;25.80
54122;BME280;40029;58.708;50.190;2023-04-10T04:01:27;100858.91;;;5.97;25.58
54122;BME280;40029;58.708;50.190;2023-04-10T04:04:06;100816.66;;;5.80;25.11
54122;BME280;40029;58.708;50.190;2023-04-10T04:06:56;100824.44;;;5.63;26.35
54122;BME280;40029;58.708;50.190;2023-04-10T04:09:37;100767.59;;;5.34;25.49
54122;BME280;40029;58.708;50.190;2023-04-10T04:12:30;100866.69;;;6.00;25.28
54122;BME280;40029;58.708;50.190;2023-04-10T04:15:02;100813.22;;;5.71;25.51
54122;BME280;40029;58.708;50.190;2023-04-10T04:17:42;100816.66;;;5.64;25.89
54122;BME280;40029;58.708;50.190;2023-04-10T04:20:13;100865.81;;;5.98;25.55
54122;BME280;40029;58.708;50.190;2023-04-10T04:22:47;100853.72;;;5.94;25.82
54122;BME280;40029;58.708;50.190;2023-04-10T04:25:18;100858.91;;;5.86;25.87
54122;BME280;40029;58.708;50.190;2023-04-10T04:28:08;100827.03;;;5.73;25.64
54122;BME280;40029;58.708;50.190;2023-04-10T04:30:49;100865.81;;;6.01;25.43
54122;BME280;40029;58.708;50.190;2023-04-10T04:33:24;100775.31;;;5.52;25.13
54122;BME280;40029;58.708;50.190;2023-04-10T04:36:25;100827.84;;;5.85;24.92
54122;BME280;40029;58.708;50.190;2023-04-10T04:39:15;100866.66;;;5.94;25.09
54122;BME280;40029;58.708;50.190;2023-04-10T04:41:52;100824.41;;;5.84;24.90
54122;BME280;40029;58.708;50.190;2023-04-10T04:44:42;100861.47;;;6.09;25.34
54122;BME280;40029;58.708;50.190;2023-04-10T04:47:34;100874.38;;;6.21;24.67
54122;BME280;40029;58.708;50.190;2023-04-10T04:50:22;100828.75;;;5.93;24.82
54122;BME280;40029;58.708;50.190;2023-04-10T04:53:12;100867.50;;;6.13;24.80
54122;BME280;40029;58.708;50.190;2023-04-10T04:56:07;100874.38;;;6.20;24.25
54122;BME280;40029;58.708;50.190;2023-04-10T04:58:48;100822.66;;;6.17;23.75
54122;BME280;40029;58.708;50.190;2023-04-10T05:01:36;100866.56;;;6.40;23.46
54122;BME280;40029;58.708;50.190;2023-04-10T05:04:26;100885.47;;;6.60;23.32
54122;BME280;40029;58.708;50.190;2023-04-10T05:07:01;100825.22;;;6.20;22.89
54122;BME280;40029;58.708;50.190;2023-04-10T05:09:52;100888.03;;;6.66;22.12
54122;BME280;40029;58.708;50.190;2023-04-10T05:12:43;100839.88;;;6.25;22.08
54122;BME280;40029;58.708;50.190;2023-04-10T05:15:33;100839.81;;;6.41;21.77
54122;BME280;40029;58.708;50.190;2023-04-10T05:18:31;100893.16;;;6.82;21.17
54122;BME280;40029;58.708;50.190;2023-04-10T05:21:13;100868.94;;;6.87;20.91
54122;BME280;40029;58.708;50.190;2023-04-10T05:24:06;100894.91;;;6.78;20.73
54122;BME280;40029;58.708;50.190;2023-04-10T05:26:55;100899.16;;;6.90;20.69
54122;BME280;40029;58.708;50.190;2023-04-10T05:29:48;100885.47;;;6.65;20.70
54122;BME280;40029;58.708;50.190;2023-04-10T05:32:40;100852.75;;;6.47;20.58
54122;BME280;40029;58.708;50.190;2023-04-10T05:35:37;100858.75;;;6.49;20.78
54122;BME280;40029;58.708;50.190;2023-04-10T05:38:37;100900.09;;;6.76;20.32
54122;BME280;40029;58.708;50.190;2023-04-10T05:41:38;100863.81;;;6.81;19.74
54122;BME280;40029;58.708;50.190;2023-04-10T05:44:33;100856.94;;;6.69;19.70
54122;BME280;40029;58.708;50.190;2023-04-10T05:47:24;100847.41;;;6.79;19.28
54122;BME280;40029;58.708;50.190;2023-04-10T05:50:08;100853.38;;;6.92;19.61
54122;BME280;40029;58.708;50.190;2023-04-10T05:52:54;100900.69;;;7.31;19.44
54122;BME280;40029;58.708;50.190;2023-04-10T05:55:42;100892.00;;;7.30;19.32
54122;BME280;40029;58.708;50.190;2023-04-10T05:58:28;100897.22;;;7.25;19.65
54122;BME280;40029;58.708;50.190;2023-04-10T06:01:15;100843.75;;;7.14;19.24
54122;BME280;40029;58.708;50.190;2023-04-10T06:03:57;100906.63;;;7.45;18.86
54122;BME280;40029;58.708;50.190;2023-04-10T06:06:30;100913.56;;;7.41;18.62
54122;BME280;40029;58.708;50.190;2023-04-10T06:09:01;100843.78;;;7.08;18.65
54122;BME280;40029;58.708;50.190;2023-04-10T06:11:34;100916.03;;;7.55;18.70
54122;BME280;40029;58.708;50.190;2023-04-10T06:14:05;100816.19;;;6.99;18.38
54122;BME280;40029;58.708;50.190;2023-04-10T06:16:42;100856.66;;;7.21;18.13
54122;BME280;40029;58.708;50.190;2023-04-10T06:19:32;100858.28;;;7.39;18.09
54122;BME280;40029;58.708;50.190;2023-04-10T06:22:03;100896.97;;;7.65;18.01
54122;BME280;40029;58.708;50.190;2023-04-10T06:24:52;100870.19;;;7.59;17.34
54122;BME280;40029;58.708;50.190;2023-04-10T06:27:24;100902.94;;;7.72;18.07
54122;BME280;40029;58.708;50.190;2023-04-10T06:30:14;100923.81;;;7.58;17.57
54122;BME280;40029;58.708;50.190;2023-04-10T06:32:45;100859.84;;;7.56;17.23
54122;BME280;40029;58.708;50.190;2023-04-10T06:35:35;100907.25;;;7.78;17.66
54122;BME280;40029;58.708;50.190;2023-04-10T06:38:07;100859.81;;;7.60;17.53
54122;BME280;40029;58.708;50.190;2023-04-10T06:40:40;100917.44;;;7.99;17.76
54122;BME280;40029;58.708;50.190;2023-04-10T06:43:29;100863.16;;;7.73;17.32
54122;BME280;40029;58.708;50.190;2023-04-10T06:46:05;100909.53;;;8.10;17.33
54122;BME280;40029;58.708;50.190;2023-04-10T06:48:36;100914.06;;;7.88;17.26
54122;BME280;40029;58.708;50.190;2023-04-10T06:51:07;100859.78;;;7.66;17.12
54122;BME280;40029;58.708;50.190;2023-04-10T06:53:38;100904.56;;;7.87;17.35
54122;BME280;40029;58.708;50.190;2023-04-10T06:56:09;100862.31;;;7.71;17.57
54122;BME280;40029;58.708;50.190;2023-04-10T06:58:40;100863.03;;;7.85;17.27
54122;BME280;40029;58.708;50.190;2023-04-10T07:01:12;100879.41;;;7.93;17.66
54122;BME280;40029;58.708;50.190;2023-04-10T07:04:01;100906.22;;;7.95;17.95
54122;BME280;40029;58.708;50.190;2023-04-10T07:06:32;100883.75;;;7.90;17.88
54122;BME280;40029;58.708;50.190;2023-04-10T07:09:03;100929.34;;;8.18;17.78
54122;BME280;40029;58.708;50.190;2023-04-10T07:11:34;100917.13;;;8.28;17.39
54122;BME280;40029;58.708;50.190;2023-04-10T07:14:06;100906.66;;;8.42;17.10
54122;BME280;40029;58.708;50.190;2023-04-10T07:16:37;100856.84;;;8.03;17.42
54122;BME280;40029;58.708;50.190;2023-04-10T07:19:08;100898.28;;;8.12;18.19
54122;BME280;40029;58.708;50.190;2023-04-10T07:21:39;100908.41;;;8.35;17.77
54122;BME280;40029;58.708;50.190;2023-04-10T07:24:10;100888.66;;;8.22;17.63
54122;BME280;40029;58.708;50.190;2023-04-10T07:26:41;100905.91;;;8.26;17.32
54122;BME280;40029;58.708;50.190;2023-04-10T07:29:12;100905.75;;;8.46;17.45
54122;BME280;40029;58.708;50.190;2023-04-10T07:31:44;100904.94;;;8.36;17.71
54122;BME280;40029;58.708;50.190;2023-04-10T07:34:15;100905.75;;;8.44;17.47
54122;BME280;40029;58.708;50.190;2023-04-10T07:36:46;100845.50;;;8.12;17.37
54122;BME280;40029;58.708;50.190;2023-04-10T07:39:18;100893.56;;;8.51;17.52
54122;BME280;40029;58.708;50.190;2023-04-10T07:41:49;100853.97;;;8.29;17.50
54122;BME280;40029;58.708;50.190;2023-04-10T07:44:20;100854.84;;;8.26;17.20
54122;BME280;40029;58.708;50.190;2023-04-10T07:46:51;100850.31;;;8.47;16.70
54122;BME280;40029;58.708;50.190;2023-04-10T07:49:22;100857.72;;;8.77;16.52
54122;BME280;40029;58.708;50.190;2023-04-10T07:51:53;100844.13;;;8.57;16.70
54122;BME280;40029;58.708;50.190;2023-04-10T07:54:25;100901.88;;;8.79;16.66
54122;BME280;40029;58.708;50.190;2023-04-10T07:56:56;100906.16;;;8.83;16.81
54122;BME280;40029;58.708;50.190;2023-04-10T07:59:27;100902.53;;;8.96;16.64
54122;BME280;40029;58.708;50.190;2023-04-10T08:01:58;100843.13;;;8.66;16.84
54122;BME280;40029;58.708;50.190;2023-04-10T08:04:29;100851.59;;;8.82;16.47
54122;BME280;40029;58.708;50.190;2023-04-10T08:07:19;100803.47;;;8.53;16.60
54122;BME280;40029;58.708;50.190;2023-04-10T08:09:52;100863.91;;;8.69;16.56
54122;BME280;40029;58.708;50.190;2023-04-10T08:12:23;100842.25;;;8.68;16.63
54122;BME280;40029;58.708;50.190;2023-04-10T08:15:12;100873.78;;;9.07;16.69
54122;BME280;40029;58.708;50.190;2023-04-10T08:17:44;100798.13;;;8.65;16.09
54122;BME280;40029;58.708;50.190;2023-04-10T08:20:15;100840.41;;;8.76;17.10
54122;BME280;40029;58.708;50.190;2023-04-10T08:22:46;100838.34;;;9.01;16.72
54122;BME280;40029;58.708;50.190;2023-04-10T08:25:17;100826.09;;;9.08;16.63
54122;BME280;40029;58.708;50.190;2023-04-10T08:27:48;100846.06;;;9.05;16.19
54122;BME280;40029;58.708;50.190;2023-04-10T08:30:19;100898.09;;;9.03;16.59
54122;BME280;40029;58.708;50.190;2023-04-10T08:32:50;100860.13;;;8.91;17.04
54122;BME280;40029;58.708;50.190;2023-04-10T08:35:21;100891.09;;;9.08;16.82
54122;BME280;40029;58.708;50.190;2023-04-10T08:37:52;100829.81;;;8.90;16.63
54122;BME280;40029;58.708;50.190;2023-04-10T08:40:23;100874.28;;;9.32;17.29
54122;BME280;40029;58.708;50.190;2023-04-10T08:42:54;100889.25;;;9.18;17.20
54122;BME280;40029;58.708;50.190;2023-04-10T08:45:25;100883.81;;;9.32;17.93
54122;BME280;40029;58.708;50.190;2023-04-10T08:47:57;100868.22;;;9.32;17.66
54122;BME280;40029;58.708;50.190;2023-04-10T08:50:32;100827.50;;;9.31;17.84
54122;BME280;40029;58.708;50.190;2023-04-10T08:53:27;100827.88;;;9.06;17.89
54122;BME280;40029;58.708;50.190;2023-04-10T08:56:03;100879.25;;;9.46;18.38
54122;BME280;40029;58.708;50.190;2023-04-10T08:58:35;100863.72;;;9.41;17.62
54122;BME280;40029;58.708;50.190;2023-04-10T09:01:08;100834.50;;;9.25;18.18
54122;BME280;40029;58.708;50.190;2023-04-10T09:03:40;100871.25;;;9.58;17.63
54122;BME280;40029;58.708;50.190;2023-04-10T09:06:11;100824.75;;;9.38;17.32
54122;BME280;40029;58.708;50.190;2023-04-10T09:09:00;100879.84;;;9.65;18.12
54122;BME280;40029;58.708;50.190;2023-04-10T09:14:31;100819.59;;;9.37;17.90
54122;BME280;40029;58.708;50.190;2023-04-10T09:17:19;100881.47;;;9.70;17.64
54122;BME280;40029;58.708;50.190;2023-04-10T09:19:52;100824.63;;;9.47;17.69
54122;BME280;40029;58.708;50.190;2023-04-10T09:22:31;100831.06;;;9.76;17.62
54122;BME280;40029;58.708;50.190;2023-04-10T09:25:03;100869.06;;;9.85;17.23
54122;BME280;40029;58.708;50.190;2023-04-10T09:27:35;100832.94;;;9.69;17.15
54122;BME280;40029;58.708;50.190;2023-04-10T09:30:07;100852.03;;;9.67;17.58
54122;BME280;40029;58.708;50.190;2023-04-10T09:32:43;100823.28;;;9.74;17.51
54122;BME280;40029;58.708;50.190;2023-04-10T09:35:15;100863.34;;;10.14;17.28
54122;BME280;40029;58.708;50.190;2023-04-10T09:37:46;100891.84;;;10.24;17.50
54122;BME280;40029;58.708;50.190;2023-04-10T09:40:22;100890.31;;;10.11;17.17
54122;BME280;40029;58.708;50.190;2023-04-10T09:42:56;100880.34;;;9.85;17.42
54122;BME280;40029;58.708;50.190;2023-04-10T09:45:45;100835.25;;;9.85;17.15
54122;BME280;40029;58.708;50.190;2023-04-10T09:48:17;100860.53;;;9.78;17.84
54122;BME280;40029;58.708;50.190;2023-04-10T09:50:49;100835.19;;;9.88;17.42
54122;BME280;40029;58.708;50.190;2023-04-10T09:53:21;100849.19;;;9.81;17.72
54122;BME280;40029;58.708;50.190;2023-04-10T09:55:53;100897.13;;;10.18;17.57
54122;BME280;40029;58.708;50.190;2023-04-10T09:58:25;100884.28;;;10.09;17.55
54122;BME280;40029;58.708;50.190;2023-04-10T10:00:57;100847.94;;;10.03;17.87
54122;BME280;40029;58.708;50.190;2023-04-10T10:03:46;100835.22;;;9.86;17.82
54122;BME280;40029;58.708;50.190;2023-04-10T10:06:18;100858.50;;;9.95;18.04
54122;BME280;40029;58.708;50.190;2023-04-10T10:08:49;100838.66;;;9.88;18.11
54122;BME280;40029;58.708;50.190;2023-04-10T10:11:22;100830.88;;;9.85;17.86
54122;BME280;40029;58.708;50.190;2023-04-10T10:13:54;100867.53;;;10.22;18.01
54122;BME280;40029;58.708;50.190;2023-04-10T10:16:47;100874.84;;;10.02;18.67
54122;BME280;40029;58.708;50.190;2023-04-10T10:21:54;100826.53;;;9.87;17.89
54122;BME280;40029;58.708;50.190;2023-04-10T10:24:45;100847.09;;;10.01;17.64
54122;BME280;40029;58.708;50.190;2023-04-10T10:27:18;100875.66;;;10.07;18.64
54122;BME280;40029;58.708;50.190;2023-04-10T10:29:52;100841.16;;;9.93;18.42
54122;BME280;40029;58.708;50.190;2023-04-10T10:32:24;100881.44;;;10.24;18.12
54122;BME280;40029;58.708;50.190;2023-04-10T10:34:56;100885.16;;;10.08;18.55
54122;BME280;40029;58.708;50.190;2023-04-10T10:37:28;100884.19;;;10.14;18.01
54122;BME280;40029;58.708;50.190;2023-04-10T10:40:08;100896.31;;;10.15;18.20
54122;BME280;40029;58.708;50.190;2023-04-10T10:46:02;100788.13;;;9.52;18.70
54122;BME280;40029;58.708;50.190;2023-04-10T10:48:33;100883.38;;;10.12;19.04
54122;BME280;40029;58.708;50.190;2023-04-10T10:51:05;100877.41;;;10.05;18.29
54122;BME280;40029;58.708;50.190;2023-04-10T10:53:43;100884.03;;;10.24;18.00
54122;BME280;40029;58.708;50.190;2023-04-10T11:01:20;100878.16;;;10.10;19.55
54122;BME280;40029;58.708;50.190;2023-04-10T11:03:52;100794.13;;;9.56;19.32
54122;BME280;40029;58.708;50.190;2023-04-10T11:06:50;100881.66;;;10.09;19.06
54122;BME280;40029;58.708;50.190;2023-04-10T11:09:52;100877.09;;;10.22;18.33
54122;BME280;40029;58.708;50.190;2023-04-10T11:12:24;100792.16;;;9.68;18.41
54122;BME280;40029;58.708;50.190;2023-04-10T11:15:02;100878.75;;;10.27;18.54
54122;BME280;40029;58.708;50.190;2023-04-10T11:20:19;100869.50;;;10.11;19.29
54122;BME280;40029;58.708;50.190;2023-04-10T11:23:11;100853.03;;;10.09;19.31
54122;BME280;40029;58.708;50.190;2023-04-10T11:33:50;100858.03;;;10.20;18.74
54122;BME280;40029;58.708;50.190;2023-04-10T11:36:31;100827.75;;;10.14;18.96
54122;BME280;40029;58.708;50.190;2023-04-10T11:39:04;100877.75;;;10.35;18.81
54122;BME280;40029;58.708;50.190;2023-04-10T11:41:38;100874.72;;;10.58;19.29
54122;BME280;40029;58.708;50.190;2023-04-10T11:44:12;100865.25;;;10.52;18.33
54122;BME280;40029;58.708;50.190;2023-04-10T11:47:01;100862.19;;;10.75;18.33
54122;BME280;40029;58.708;50.190;2023-04-10T11:49:33;100821.31;;;10.75;18.50
54122;BME280;40029;58.708;50.190;2023-04-10T11:52:04;100823.47;;;10.95;18.49
54122;BME280;40029;58.708;50.190;2023-04-10T11:54:36;100796.25;;;11.07;17.96
54122;BME280;40029;58.708;50.190;2023-04-10T11:57:07;100807.81;;;11.34;17.14
54122;BME280;40029;58.708;50.190;2023-04-10T11:59:39;100848.03;;;12.28;16.41
54122;BME280;40029;58.708;50.190;2023-04-10T12:02:12;100815.22;;;12.47;16.22
54122;BME280;40029;58.708;50.190;2023-04-10T12:04:56;100839.56;;;13.07;15.46
54122;BME280;40029;58.708;50.190;2023-04-10T12:07:27;100836.44;;;13.25;15.00
54122;BME280;40029;58.708;50.190;2023-04-10T12:09:59;100827.81;;;13.48;14.82
54122;BME280;40029;58.708;50.190;2023-04-10T12:12:35;100845.50;;;13.93;14.11
54122;BME280;40029;58.708;50.190;2023-04-10T12:15:26;100843.16;;;13.86;13.51
54122;BME280;40029;58.708;50.190;2023-04-10T12:17:57;100814.22;;;13.37;14.60
54122;BME280;40029;58.708;50.190;2023-04-10T12:20:29;100852.44;;;13.43;14.36
54122;BME280;40029;58.708;50.190;2023-04-10T12:23:00;100848.81;;;13.73;13.90
54122;BME280;40029;58.708;50.190;2023-04-10T12:25:32;100817.50;;;13.16;14.77
54122;BME280;40029;58.708;50.190;2023-04-10T12:28:05;100851.00;;;13.86;14.12
54122;BME280;40029;58.708;50.190;2023-04-10T12:30:36;100814.09;;;13.67;13.49
54122;BME280;40029;58.708;50.190;2023-04-10T12:33:07;100833.34;;;14.16;13.28
54122;BME280;40029;58.708;50.190;2023-04-10T12:35:39;100844.50;;;13.97;13.72
54122;BME280;40029;58.708;50.190;2023-04-10T12:38:12;100802.41;;;13.77;13.48
54122;BME280;40029;58.708;50.190;2023-04-10T12:40:59;100769.31;;;13.74;12.95
54122;BME280;40029;58.708;50.190;2023-04-10T12:43:39;100799.13;;;13.95;13.11
54122;BME280;40029;58.708;50.190;2023-04-10T12:46:25;100806.22;;;13.93;13.14
54122;BME280;40029;58.708;50.190;2023-04-10T12:49:16;100838.19;;;14.26;12.86
54122;BME280;40029;58.708;50.190;2023-04-10T12:51:51;100848.50;;;14.31;13.08
54122;BME280;40029;58.708;50.190;2023-04-10T12:54:30;100837.66;;;14.89;12.23
54122;BME280;40029;58.708;50.190;2023-04-10T12:57:02;100804.03;;;14.30;12.92
54122;BME280;40029;58.708;50.190;2023-04-10T12:59:34;100794.78;;;14.19;12.99
54122;BME280;40029;58.708;50.190;2023-04-10T13:02:23;100776.09;;;14.29;12.81
54122;BME280;40029;58.708;50.190;2023-04-10T13:04:54;100778.34;;;14.14;13.13
54122;BME280;40029;58.708;50.190;2023-04-10T13:07:26;100833.88;;;14.25;13.18
54122;BME280;40029;58.708;50.190;2023-04-10T13:09:57;100832.91;;;14.28;13.61
54122;BME280;40029;58.708;50.190;2023-04-10T13:12:29;100815.75;;;14.19;13.30
54122;BME280;40029;58.708;50.190;2023-04-10T13:15:01;100796.41;;;13.73;13.73
54122;BME280;40029;58.708;50.190;2023-04-10T13:17:33;100735.34;;;13.96;13.20
54122;BME280;40029;58.708;50.190;2023-04-10T13:20:05;100817.53;;;14.19;13.27
54122;BME280;40029;58.708;50.190;2023-04-10T13:22:37;100763.88;;;14.04;13.02
54122;BME280;40029;58.708;50.190;2023-04-10T13:25:08;100793.63;;;14.26;13.18
54122;BME280;40029;58.708;50.190;2023-04-10T13:27:39;100799.50;;;14.58;12.76
54122;BME280;40029;58.708;50.190;2023-04-10T13:30:10;100766.78;;;14.43;12.89
54122;BME280;40029;58.708;50.190;2023-04-10T13:32:41;100774.72;;;14.65;12.28
54122;BME280;40029;58.708;50.190;2023-04-10T13:35:12;100809.44;;;14.25;13.32
54122;BME280;40029;58.708;50.190;2023-04-10T13:38:02;100801.94;;;13.91;13.56
54122;BME280;40029;58.708;50.190;2023-04-10T13:40:33;100810.69;;;14.15;13.40
54122;BME280;40029;58.708;50.190;2023-04-10T13:43:05;100809.78;;;14.16;13.19
54122;BME280;40029;58.708;50.190;2023-04-10T13:45:36;100821.59;;;14.03;13.17
54122;BME280;40029;58.708;50.190;2023-04-10T13:48:07;100768.72;;;13.66;13.73
54122;BME280;40029;58.708;50.190;2023-04-10T13:50:38;100773.94;;;13.68;13.43
54122;BME280;40029;58.708;50.190;2023-04-10T13:53:09;100809.34;;;13.78;13.47
54122;BME280;40029;58.708;50.190;2023-04-10T13:55:58;100780.53;;;13.53;13.48
54122;BME280;40029;58.708;50.190;2023-04-10T13:58:30;100776.53;;;12.88;14.04
54122;BME280;40029;58.708;50.190;2023-04-10T14:01:03;100802.53;;;12.93;14.02
54122;BME280;40029;58.708;50.190;2023-04-10T14:03:35;100757.81;;;12.72;13.79
54122;BME280;40029;58.708;50.190;2023-04-10T14:06:06;100827.22;;;12.55;14.86
54122;BME280;40029;58.708;50.190;2023-04-10T14:08:37;100743.91;;;11.82;15.47
54122;BME280;40029;58.708;50.190;2023-04-10T14:11:08;100810.81;;;12.18;15.16